createdAt,value
2023-05-15T00:00:25.267Z,1.58
2023-05-15T00:10:25.287Z,1.87
2023-05-15T00:20:25.349Z,1.97
2023-05-15T00:30:25.327Z,1.48
2023-05-15T00:40:26.355Z,1.67
2023-05-15T00:50:26.401Z,1.28
2023-05-15T01:00:26.379Z,1.67
2023-05-15T01:10:26.432Z,2.75
2023-05-15T01:20:26.410Z,1.96
2023-05-15T01:30:26.392Z,1.57
2023-05-15T01:40:26.497Z,2.94
2023-05-15T01:50:26.397Z,3.23
2023-05-15T02:00:26.489Z,3.71
2023-05-15T02:10:27.280Z,3.22
2023-05-15T02:20:27.946Z,2.73
2023-05-15T02:30:29.091Z,2.34
2023-05-15T02:40:29.594Z,2.63
2023-05-15T02:50:29.701Z,7.12
2023-05-15T03:00:29.680Z,11.89
2023-05-15T03:10:29.564Z,11.70
2023-05-15T03:20:29.576Z,11.21
2023-05-15T03:30:29.704Z,12.37
2023-05-15T03:40:31.472Z,10.62
2023-05-15T03:50:33.287Z,14.22
2023-05-15T04:00:33.686Z,12.75
2023-05-15T04:10:33.590Z,14.50
2023-05-15T04:20:33.625Z,15.86
2023-05-15T04:30:36.809Z,15.57
2023-05-15T04:40:36.660Z,11.87
2023-05-15T04:50:36.932Z,18.30
2023-05-15T05:00:36.714Z,18.69
2023-05-15T05:10:56.377Z,18.10
2023-05-15T05:21:00.145Z,22.47
2023-05-15T05:31:02.164Z,21.70
2023-05-15T05:41:02.801Z,24.75
2023-05-15T05:51:02.911Z,23.50
2023-05-15T06:01:03.107Z,16.59
2023-05-15T06:11:03.161Z,16.11
2023-05-15T06:21:03.900Z,20.42
2023-05-15T06:31:04.116Z,13.30
2023-05-15T06:41:05.063Z,13.12
2023-05-15T06:51:05.170Z,8.82
2023-05-15T07:01:06.148Z,12.27
2023-05-15T07:11:05.893Z,9.22
2023-05-15T07:21:07.278Z,13.65
2023-05-15T07:31:07.109Z,11.80
2023-05-15T07:41:09.157Z,14.77
2023-05-15T07:51:08.960Z,12.02
2023-05-15T08:01:08.915Z,14.60
2023-05-15T08:11:08.967Z,13.15
2023-05-15T08:21:08.934Z,13.27
2023-05-15T08:31:09.107Z,9.13
2023-05-15T08:41:08.984Z,8.73
2023-05-15T08:51:09.323Z,7.59
2023-05-15T09:01:09.048Z,7.79
2023-05-15T09:11:09.010Z,10.60
2023-05-15T09:21:09.080Z,6.20
2023-05-15T09:31:09.204Z,4.70
2023-05-15T09:41:09.161Z,6.30
2023-05-15T09:51:09.076Z,5.40
2023-05-15T10:01:09.176Z,7.30
2023-05-15T10:11:09.149Z,5.20
2023-05-15T10:21:09.161Z,5.50
2023-05-15T10:31:09.267Z,4.70
2023-05-15T10:41:17.318Z,4.20
2023-05-15T10:51:11.201Z,4.40
2023-05-15T11:01:11.951Z,4.90
2023-05-15T11:11:12.182Z,3.60
2023-05-15T11:21:12.580Z,4.90
2023-05-15T11:31:12.295Z,5.60
2023-05-15T11:41:12.313Z,4.80
2023-05-15T11:51:12.295Z,4.80
2023-05-15T12:01:12.784Z,5.80
2023-05-15T12:11:13.294Z,5.60
2023-05-15T12:21:13.553Z,2.40
2023-05-15T12:31:16.121Z,5.30
2023-05-15T12:41:16.316Z,2.00
2023-05-15T12:51:16.432Z,1.10
2023-05-15T13:01:16.947Z,2.20
2023-05-15T13:11:17.840Z,0.60
2023-05-15T13:21:18.443Z,3.70
2023-05-15T13:31:18.519Z,2.10
2023-05-15T13:41:18.524Z,2.20
2023-05-15T13:51:18.478Z,6.20
2023-05-15T14:01:18.622Z,4.20
2023-05-15T14:11:18.654Z,3.90
2023-05-15T14:21:18.471Z,3.20
2023-05-15T14:31:18.577Z,9.20
2023-05-15T14:41:18.535Z,5.90
2023-05-15T14:51:19.894Z,5.30
2023-05-15T15:01:20.615Z,5.60
2023-05-15T15:11:20.564Z,6.90
2023-05-15T15:21:20.675Z,4.50
2023-05-15T15:31:21.187Z,4.80
2023-05-15T15:41:22.848Z,5.70
2023-05-15T15:51:22.618Z,7.00
2023-05-15T16:01:22.917Z,5.90
2023-05-15T16:11:23.437Z,6.00
2023-05-15T16:21:23.713Z,7.39
2023-05-15T16:31:23.188Z,8.39
2023-05-15T16:41:23.673Z,7.69
2023-05-15T16:51:23.741Z,4.19
2023-05-15T17:01:23.770Z,7.49
2023-05-15T17:11:23.794Z,3.59
2023-05-15T17:21:23.742Z,5.39
2023-05-15T17:31:23.864Z,4.99
2023-05-15T17:41:23.834Z,9.68
2023-05-15T17:51:23.842Z,9.37
2023-05-15T18:01:23.848Z,6.38
2023-05-15T18:11:24.475Z,10.16
2023-05-15T18:21:25.190Z,7.87
2023-05-15T18:31:25.014Z,7.96
2023-05-15T18:41:26.546Z,4.38
2023-05-15T18:51:26.987Z,4.27
2023-05-15T19:01:26.944Z,3.86
2023-05-15T19:11:27.374Z,2.77
2023-05-15T19:21:28.877Z,5.83
2023-05-15T19:31:32.047Z,5.23
2023-05-15T19:41:32.994Z,3.16
2023-05-15T19:51:33.769Z,3.55
2023-05-15T20:01:33.965Z,3.06
2023-05-15T20:11:33.933Z,4.93
2023-05-15T20:21:34.047Z,2.36
2023-05-15T20:31:34.058Z,2.76
2023-05-15T20:41:34.300Z,3.25
2023-05-15T20:51:34.073Z,1.97
2023-05-15T21:01:34.233Z,2.95
2023-05-15T21:11:34.057Z,1.08
2023-05-15T21:21:34.729Z,3.15
2023-05-15T21:31:35.509Z,2.56
2023-05-15T21:41:36.155Z,3.44
2023-05-15T21:51:36.124Z,3.84
2023-05-15T22:01:36.382Z,3.93
2023-05-15T22:11:37.329Z,3.34
2023-05-15T22:21:37.177Z,1.87
2023-05-15T22:31:37.188Z,3.73
2023-05-15T22:41:37.201Z,4.61
2023-05-15T22:51:37.556Z,3.04
2023-05-15T23:01:37.283Z,4.41
2023-05-15T23:11:38.386Z,3.62
2023-05-15T23:21:38.192Z,2.64
2023-05-15T23:31:38.756Z,2.34
2023-05-15T23:41:39.234Z,1.65
2023-05-15T23:51:39.257Z,3.50
